Time;durP1;ratioP1;P1;durP2;ratioP2;P2;SDS_P1;SDS_P2;PMS_P1;PMS_P2;Temp;Humidity;BMP_temperature;BMP_pressure;BME280_temperature;BME280_humidity;BME280_pressure;Samples;Min_cycle;Max_cycle;Signal;HPM_P1;HPM_P2
2020/12/13 00:01:30;;;;;;;;;;;;;;;17.06;71.97;99937.88;5074064;28;1333;-45
2020/12/13 00:03:55;;;;;;;;;;;;;;;17.09;71.70;99934.94;5073658;28;1216;-45
2020/12/13 00:06:21;;;;;;;;;;;;;;;17.10;70.65;99922.41;5073808;28;1913;-45
2020/12/13 00:08:46;;;;;;;;;;;;;;;17.05;71.13;99936.22;5068151;28;1547;-45
2020/12/13 00:11:11;;;;;;;;;;;;;;;17.07;71.26;99933.41;5053971;28;836;-45
2020/12/13 00:13:36;;;;;;;;;;;;;;;17.06;71.39;99940.56;5053566;28;1039;-45
2020/12/13 00:16:02;;;;;;;;;;;;;;;17.04;71.73;99929.16;5053890;28;786;-45
2020/12/13 00:18:27;;;;;;;;;;;;;;;17.06;71.06;99945.91;5053529;28;917;-45
2020/12/13 00:20:53;;;;;;;;;;;;;;;17.07;71.32;99936.91;5052845;28;889;-45
2020/12/13 00:23:18;;;;;;;;;;;;;;;17.04;71.38;99923.00;5057096;28;1500;-45
2020/12/13 00:25:43;;;;;;;;;;;;;;;17.04;71.44;99929.16;5073708;28;1943;-45
2020/12/13 00:28:08;;;;;;;;;;;;;;;17.03;70.44;99946.19;5073817;28;805;-45
2020/12/13 00:30:34;;;;;;;;;;;;;;;17.01;71.52;99958.84;5073315;28;904;-44
2020/12/13 00:32:59;;;;;;;;;;;;;;;17.04;71.40;99952.38;5073427;28;869;-45
2020/12/13 00:35:24;;;;;;;;;;;;;;;17.04;70.45;99958.56;5073658;28;849;-45
2020/12/13 00:37:50;;;;;;;;;;;;;;;17.02;70.75;99957.84;5071458;28;1575;-45
2020/12/13 00:40:16;;;;;;;;;;;;;;;16.99;71.56;99959.97;5053656;28;773;-45
2020/12/13 00:42:41;;;;;;;;;;;;;;;16.99;71.50;99955.47;5053471;28;884;-45
2020/12/13 00:45:06;;;;;;;;;;;;;;;16.97;71.46;99962.78;5053180;28;1949;-46
2020/12/13 00:47:31;;;;;;;;;;;;;;;16.97;71.63;99962.78;5053437;28;836;-45
2020/12/13 00:49:57;;;;;;;;;;;;;;;16.95;70.56;99964.78;5053534;28;805;-45
2020/12/13 00:52:22;;;;;;;;;;;;;;;16.97;71.42;99961.94;5053301;28;1590;-45
2020/12/13 00:54:47;;;;;;;;;;;;;;;16.96;70.58;99957.59;5073189;28;920;-46
2020/12/13 00:57:12;;;;;;;;;;;;;;;16.90;70.72;99961.66;5073215;28;915;-46
2020/12/13 00:59:37;;;;;;;;;;;;;;;16.93;71.53;99968.53;5073164;28;909;-45
2020/12/13 01:02:05;;;;;;;;;;;;;;;16.93;71.35;99979.22;5072170;28;1329;-46
2020/12/13 01:04:31;;;;;;;;;;;;;;;16.84;70.52;99972.91;5073579;28;881;-45
2020/12/13 01:07:05;;;;;;;;;;;;;;;16.82;71.68;99982.91;5073347;28;1978;-45
2020/12/13 01:09:32;;;;;;;;;;;;;;;16.86;71.30;99989.63;5053352;28;786;-45
2020/12/13 01:11:58;;;;;;;;;;;;;;;16.82;70.87;99975.72;5053595;28;813;-45
2020/12/13 01:14:25;;;;;;;;;;;;;;;16.80;70.46;99987.50;5053313;28;849;-45
2020/12/13 01:16:53;;;;;;;;;;;;;;;16.84;71.09;99975.59;5053275;28;879;-45
2020/12/13 01:19:21;;;;;;;;;;;;;;;16.84;70.30;99975.59;5053513;28;898;-45
2020/12/13 01:21:47;;;;;;;;;;;;;;;16.77;71.30;99958.41;5052911;28;1516;-47
2020/12/13 01:24:17;;;;;;;;;;;;;;;16.75;70.79;99987.06;5073258;28;1314;-45
2020/12/13 01:26:43;;;;;;;;;;;;;;;16.77;71.66;99987.75;5073106;28;1957;-45
2020/12/13 01:29:10;;;;;;;;;;;;;;;16.76;70.45;99986.09;5072870;28;921;-45
2020/12/13 01:31:39;;;;;;;;;;;;;;;16.74;70.63;99977.38;5056746;28;1488;-45
2020/12/13 01:34:07;;;;;;;;;;;;;;;16.72;70.72;99976.69;5076881;28;876;-45
2020/12/13 01:36:34;;;;;;;;;;;;;;;16.75;71.29;99965.69;5076280;28;1545;-46
2020/12/13 01:39:00;;;;;;;;;;;;;;;16.78;70.89;99979.63;5075368;28;1524;-45
2020/12/13 01:41:25;;;;;;;;;;;;;;;16.78;70.32;99962.75;5076752;28;869;-45
2020/12/13 01:44:10;;;;;;;;;;;;;;;16.79;71.04;99967.09;5076697;28;813;-45
2020/12/13 01:46:55;;;;;;;;;;;;;;;16.76;70.56;99965.56;5076283;28;1885;-46
2020/12/13 01:49:21;;;;;;;;;;;;;;;16.76;70.86;99967.41;5070218;28;872;-45
2020/12/13 01:52:07;;;;;;;;;;;;;;;16.75;70.39;99984.38;5072875;28;1519;-46
2020/12/13 01:54:35;;;;;;;;;;;;;;;16.74;71.51;99982.72;5056190;28;927;-45
2020/12/13 01:57:01;;;;;;;;;;;;;;;16.72;70.23;99993.53;5056197;28;873;-45
2020/12/13 01:59:28;;;;;;;;;;;;;;;16.75;70.35;99997.75;5056407;28;798;-45
2020/12/13 02:01:57;;;;;;;;;;;;;;;16.69;70.74;99985.78;5056041;28;1432;-45
2020/12/13 02:04:23;;;;;;;;;;;;;;;16.68;71.88;99992.97;5057110;28;1566;-45
2020/12/13 02:06:51;;;;;;;;;;;;;;;16.68;70.61;99987.63;5075850;28;1985;-45
2020/12/13 02:09:17;;;;;;;;;;;;;;;16.72;72.02;99993.53;5076041;28;1492;-45
2020/12/13 02:11:42;;;;;;;;;;;;;;;16.69;70.69;100000.00;5075894;28;1031;-45
2020/12/13 02:14:07;;;;;;;;;;;;;;;16.65;72.34;99998.59;5076176;28;835;-45
2020/12/13 02:16:32;;;;;;;;;;;;;;;16.67;71.97;99990.44;5075753;28;889;-45
2020/12/13 02:18:58;;;;;;;;;;;;;;;16.64;72.08;99988.06;5075729;28;1528;-45
2020/12/13 02:21:23;;;;;;;;;;;;;;;16.62;71.12;100008.69;5056444;28;1635;-45
2020/12/13 02:23:48;;;;;;;;;;;;;;;16.64;71.64;99988.06;5056126;28;1540;-46
2020/12/13 02:26:14;;;;;;;;;;;;;;;16.62;71.27;99998.03;5055854;28;1890;-45
2020/12/13 02:28:40;;;;;;;;;;;;;;;16.67;71.07;99996.63;5055856;28;766;-45
2020/12/13 02:31:06;;;;;;;;;;;;;;;16.67;71.87;99993.97;5055483;28;584;-48
2020/12/13 02:33:31;;;;;;;;;;;;;;;16.64;70.88;99998.72;5055526;28;809;-45
2020/12/13 02:35:57;;;;;;;;;;;;;;;16.63;71.88;100023.72;5072844;28;1677;-45
2020/12/13 02:38:22;;;;;;;;;;;;;;;16.60;71.92;100008.84;5072940;28;1578;-45
2020/12/13 02:40:48;;;;;;;;;;;;;;;16.55;71.90;100003.06;5055381;28;975;-46
2020/12/13 02:43:13;;;;;;;;;;;;;;;16.58;70.94;100009.97;5054469;28;781;-45
2020/12/13 02:45:38;;;;;;;;;;;;;;;16.54;70.76;100012.06;5055563;28;1948;-45
2020/12/13 02:48:03;;;;;;;;;;;;;;;16.54;71.32;100019.22;5055300;28;890;-45
2020/12/13 02:50:31;;;;;;;;;;;;;;;16.56;70.67;100014.59;5055501;28;798;-45
2020/12/13 02:52:57;;;;;;;;;;;;;;;16.57;71.17;100021.59;5055603;28;1533;-45
2020/12/13 02:55:22;;;;;;;;;;;;;;;16.57;71.03;100011.75;5075483;28;805;-45
2020/12/13 02:57:47;;;;;;;;;;;;;;;16.59;70.37;100001.81;5075336;28;864;-45
2020/12/13 03:00:12;;;;;;;;;;;;;;;16.58;70.50;100005.47;5075308;28;825;-46
2020/12/13 03:02:37;;;;;;;;;;;;;;;16.64;70.25;100020.09;5074696;28;1368;-45
2020/12/13 03:05:03;;;;;;;;;;;;;;;16.58;70.21;100013.47;5074811;28;877;-45
2020/12/13 03:07:28;;;;;;;;;;;;;;;16.56;70.86;100009.25;5075042;28;1905;-45
2020/12/13 03:09:53;;;;;;;;;;;;;;;16.55;70.41;100019.06;5065958;28;1617;-45
2020/12/13 03:12:18;;;;;;;;;;;;;;;16.55;70.30;100010.22;5075022;28;857;-45
2020/12/13 03:14:44;;;;;;;;;;;;;;;16.56;70.27;100007.41;5075020;28;783;-45
2020/12/13 03:17:09;;;;;;;;;;;;;;;16.57;70.81;100021.59;5074658;28;856;-45
2020/12/13 03:19:34;;;;;;;;;;;;;;;16.53;70.76;100037.03;5068376;28;1583;-45
2020/12/13 03:21:59;;;;;;;;;;;;;;;16.52;70.74;100034.53;5054577;28;822;-45
2020/12/13 03:24:25;;;;;;;;;;;;;;;16.49;70.41;100039.16;5054937;28;801;-46
2020/12/13 03:26:50;;;;;;;;;;;;;;;16.51;70.56;100028.31;5054369;28;1953;-45
2020/12/13 03:29:15;;;;;;;;;;;;;;;16.46;71.14;100019.91;5054668;28;872;-45
2020/12/13 03:31:40;;;;;;;;;;;;;;;16.44;70.58;100024.53;5054386;28;873;-45
2020/12/13 03:34:06;;;;;;;;;;;;;;;16.46;70.69;100043.94;5058934;28;1551;-45
2020/12/13 03:36:31;;;;;;;;;;;;;;;16.44;71.22;100037.88;5074552;28;897;-45
2020/12/13 03:38:56;;;;;;;;;;;;;;;16.42;70.54;100043.34;5074202;28;908;-45
2020/12/13 03:41:22;;;;;;;;;;;;;;;16.44;71.01;100036.06;5074418;28;841;-45
2020/12/13 03:43:47;;;;;;;;;;;;;;;16.47;71.44;100037.59;5074548;28;848;-45
2020/12/13 03:46:12;;;;;;;;;;;;;;;16.54;71.37;100049.41;5074348;28;1886;-46
2020/12/13 03:48:37;;;;;;;;;;;;;;;16.59;71.35;100065.00;5070945;28;1523;-45
2020/12/13 03:51:03;;;;;;;;;;;;;;;16.59;71.45;100046.34;5054328;28;789;-45
2020/12/13 03:53:29;;;;;;;;;;;;;;;16.54;72.19;100059.25;5054249;28;904;-45
2020/12/13 03:55:54;;;;;;;;;;;;;;;16.50;71.17;100040.00;5054055;28;878;-45
2020/12/13 03:58:20;;;;;;;;;;;;;;;16.48;71.09;100050.81;5053669;28;920;-45
2020/12/13 04:00:45;;;;;;;;;;;;;;;16.46;70.85;100049.25;5054055;28;1414;-45
2020/12/13 04:03:10;;;;;;;;;;;;;;;16.45;72.04;100068.91;5054842;28;1481;-45
2020/12/13 04:05:35;;;;;;;;;;;;;;;16.41;70.99;100062.16;5073542;28;1977;-46
2020/12/13 04:08:01;;;;;;;;;;;;;;;16.40;71.61;100055.97;5074124;28;857;-45
2020/12/13 04:10:26;;;;;;;;;;;;;;;16.46;71.84;100073.28;5074064;28;951;-45
2020/12/13 04:12:51;;;;;;;;;;;;;;;16.42;70.73;100051.34;5073970;28;795;-45
2020/12/13 04:15:17;;;;;;;;;;;;;;;16.42;70.98;100054.03;5073963;28;782;-45
2020/12/13 04:17:44;;;;;;;;;;;;;;;16.44;72.37;100060.06;5073357;28;1562;-46
2020/12/13 04:20:09;;;;;;;;;;;;;;;16.44;71.43;100064.56;5073623;28;1428;-46
2020/12/13 04:22:35;;;;;;;;;;;;;;;16.45;71.35;100063.56;5073797;28;877;-45
2020/12/13 04:25:00;;;;;;;;;;;;;;;16.44;72.58;100075.25;5073704;28;879;-45
2020/12/13 04:27:25;;;;;;;;;;;;;;;16.44;71.10;100056.56;5073438;28;1955;-45
2020/12/13 04:29:51;;;;;;;;;;;;;;;16.43;71.60;100070.88;5073788;28;909;-45
2020/12/13 04:32:16;;;;;;;;;;;;;;;16.43;71.25;100081.53;5060951;28;1567;-45
2020/12/13 04:34:41;;;;;;;;;;;;;;;16.44;71.91;100073.41;5073062;28;1322;-45
2020/12/13 04:37:07;;;;;;;;;;;;;;;16.43;71.02;100068.19;5067518;28;1527;-46
2020/12/13 04:39:34;;;;;;;;;;;;;;;16.40;71.69;100060.47;5053489;28;797;-46
2020/12/13 04:41:59;;;;;;;;;;;;;;;16.36;71.17;100075.06;5065733;28;1547;-45
2020/12/13 04:44:25;;;;;;;;;;;;;;;16.33;71.06;100054.00;5073658;28;820;-45
2020/12/13 04:46:52;;;;;;;;;;;;;;;16.32;71.20;100066.50;5073322;28;1953;-45
2020/12/13 04:49:20;;;;;;;;;;;;;;;16.30;71.40;100077.28;5073567;28;845;-45
2020/12/13 04:51:50;;;;;;;;;;;;;;;16.34;72.06;100077.03;5060225;28;1468;-47
2020/12/13 04:54:19;;;;;;;;;;;;;;;16.36;70.68;100075.06;5053147;28;860;-45
2020/12/13 04:56:44;;;;;;;;;;;;;;;16.35;71.47;100065.38;5053185;28;876;-45
2020/12/13 04:59:09;;;;;;;;;;;;;;;16.35;70.61;100062.69;5053134;28;912;-46
2020/12/13 05:01:35;;;;;;;;;;;;;;;16.34;71.61;100061.88;5053007;28;1406;-45
2020/12/13 05:04:00;;;;;;;;;;;;;;;16.38;71.37;100070.44;5052971;28;1085;-45
2020/12/13 05:06:25;;;;;;;;;;;;;;;16.35;70.74;100068.03;5066908;28;1983;-45
2020/12/13 05:08:51;;;;;;;;;;;;;;;16.32;70.50;100065.66;5077021;28;816;-45
2020/12/13 05:11:16;;;;;;;;;;;;;;;16.30;70.74;100071.97;5077138;28;839;-45
2020/12/13 05:13:42;;;;;;;;;;;;;;;16.29;70.66;100078.28;5077407;28;789;-45
2020/12/13 05:16:07;;;;;;;;;;;;;;;16.26;70.80;100069.69;5077312;28;819;-45
2020/12/13 05:18:36;;;;;;;;;;;;;;;16.29;70.62;100072.94;5077178;28;803;-46
2020/12/13 05:21:02;;;;;;;;;;;;;;;16.27;71.23;100085.59;5065061;28;1563;-45
2020/12/13 05:23:29;;;;;;;;;;;;;;;16.29;71.45;100074.75;5056797;28;805;-45
2020/12/13 05:25:54;;;;;;;;;;;;;;;16.28;71.24;100065.06;5056651;28;1878;-45
2020/12/13 05:28:22;;;;;;;;;;;;;;;16.29;70.80;100064.94;5057066;28;779;-45
2020/12/13 05:30:49;;;;;;;;;;;;;;;16.28;71.33;100068.59;5056768;28;1717;-45
2020/12/13 05:35:43;;;;;;;;;;;;;;;16.32;70.54;100084.34;5068185;28;1524;-45
2020/12/13 05:38:10;;;;;;;;;;;;;;;16.32;70.82;100079.84;5076818;28;868;-45
2020/12/13 05:40:35;;;;;;;;;;;;;;;16.30;70.66;100093.31;5076817;28;797;-45
2020/12/13 05:43:06;;;;;;;;;;;;;;;16.28;70.66;100094.44;5076422;28;861;-45
2020/12/13 05:53:00;;;;;;;;;;;;;;;16.30;70.70;100111.13;5056707;28;972;-45
2020/12/13 05:55:25;;;;;;;;;;;;;;;16.31;70.72;100110.16;5056655;28;951;-45
2020/12/13 05:57:52;;;;;;;;;;;;;;;16.26;70.67;100129.22;5056190;28;1058;-45
2020/12/13 06:00:17;;;;;;;;;;;;;;;16.19;71.12;100108.56;5056138;28;929;-45
2020/12/13 06:02:48;;;;;;;;;;;;;;;16.21;70.96;100131.44;5055818;28;1416;-45
2020/12/13 06:05:16;;;;;;;;;;;;;;;16.19;71.71;100128.06;5067055;28;1592;-45
2020/12/13 06:07:48;;;;;;;;;;;;;;;16.20;70.52;100140.44;5076148;28;1906;-45
2020/12/13 06:10:16;;;;;;;;;;;;;;;16.24;71.01;100135.69;5074616;28;1500;-46
2020/12/13 06:12:42;;;;;;;;;;;;;;;16.24;70.31;100133.03;5076221;28;773;-45
2020/12/13 06:15:07;;;;;;;;;;;;;;;16.24;70.57;100141.88;5075914;28;944;-45
2020/12/13 06:17:33;;;;;;;;;;;;;;;16.22;71.24;100143.81;5074836;28;883;-45
2020/12/13 06:19:58;;;;;;;;;;;;;;;16.24;70.63;100147.19;5058279;28;1512;-45
2020/12/13 06:22:24;;;;;;;;;;;;;;;16.27;71.36;100152.28;5055730;28;941;-45
2020/12/13 06:24:52;;;;;;;;;;;;;;;16.22;71.17;100165.16;5056055;28;835;-45
2020/12/13 06:27:19;;;;;;;;;;;;;;;16.19;70.96;100157.41;5055523;28;1955;-45
2020/12/13 06:29:44;;;;;;;;;;;;;;;16.18;71.21;100169.06;5055518;28;925;-45
2020/12/13 06:32:10;;;;;;;;;;;;;;;16.16;70.87;100173.69;5055573;28;972;-45
2020/12/13 06:34:35;;;;;;;;;;;;;;;16.18;71.06;100189.56;5056468;28;1574;-45
2020/12/13 06:37:03;;;;;;;;;;;;;;;16.15;71.17;100177.31;5055748;28;951;-45
2020/12/13 06:39:29;;;;;;;;;;;;;;;16.16;71.04;100188.88;5055431;28;899;-45
2020/12/13 06:41:54;;;;;;;;;;;;;;;16.17;70.25;100183.38;5055334;28;865;-45
2020/12/13 06:44:21;;;;;;;;;;;;;;;16.18;70.69;100182.41;5055296;28;903;-45
2020/12/13 06:46:47;;;;;;;;;;;;;;;16.18;70.01;100185.06;5055487;28;1886;-45
2020/12/13 06:49:13;;;;;;;;;;;;;;;16.18;70.92;100185.06;5070576;28;1508;-45
2020/12/13 06:51:40;;;;;;;;;;;;;;;16.23;71.12;100196.19;5075503;28;864;-45
2020/12/13 06:54:07;;;;;;;;;;;;;;;16.17;71.25;100196.72;5075403;28;900;-45
2020/12/13 06:56:32;;;;;;;;;;;;;;;16.19;71.58;100196.59;5075472;28;861;-45
2020/12/13 06:58:59;;;;;;;;;;;;;;;16.24;70.55;100200.56;5067124;28;1733;-45
2020/12/13 07:01:24;;;;;;;;;;;;;;;16.24;70.51;100202.38;5057701;28;1681;-45
2020/12/13 07:03:50;;;;;;;;;;;;;;;16.25;71.18;100204.94;5056404;28;1724;-45
2020/12/13 07:06:19;;;;;;;;;;;;;;;16.26;71.52;100198.59;5055867;28;1976;-45
2020/12/13 07:08:48;;;;;;;;;;;;;;;16.27;71.37;100202.97;5073312;28;1570;-45
2020/12/13 07:11:14;;;;;;;;;;;;;;;16.22;71.18;100196.34;5075001;28;880;-45
2020/12/13 07:13:42;;;;;;;;;;;;;;;16.15;70.89;100208.50;5073103;28;1679;-45
2020/12/13 07:16:11;;;;;;;;;;;;;;;16.12;70.71;100216.78;5074764;28;924;-45
2020/12/13 07:18:38;;;;;;;;;;;;;;;16.14;71.79;100207.66;5032820;28;10931;-45
2020/12/13 07:21:03;;;;;;;;;;;;;;;16.15;70.33;100206.66;5055622;28;1555;-45
2020/12/13 07:23:28;;;;;;;;;;;;;;;16.16;71.79;100221.72;4715855;28;9999691;-45
2020/12/13 07:25:54;;;;;;;;;;;;;;;16.15;71.12;100233.34;5066808;28;1902;-45
2020/12/13 07:28:21;;;;;;;;;;;;;;;16.17;70.78;100236.72;5070240;28;1660;-45
2020/12/13 07:30:47;;;;;;;;;;;;;;;16.17;70.74;100226.06;5065768;28;1681;-45
2020/12/13 07:33:12;;;;;;;;;;;;;;;16.16;70.44;100235.03;5068384;28;1676;-45
2020/12/13 07:35:37;;;;;;;;;;;;;;;16.14;70.73;100234.31;5061173;28;2119;-47
2020/12/13 07:38:02;;;;;;;;;;;;;;;16.17;70.86;100250.06;5067162;28;1954;-45
2020/12/13 07:40:28;;;;;;;;;;;;;;;16.15;70.33;100237.84;5057590;28;1673;-46
2020/12/13 07:42:57;;;;;;;;;;;;;;;16.15;70.42;100253.84;5059219;28;1760;-45
2020/12/13 07:45:23;;;;;;;;;;;;;;;16.08;71.21;100237.53;5068997;28;1964;-47
2020/12/13 07:48:00;;;;;;;;;;;;;;;16.10;70.99;100264.91;5048860;28;1697;-45
2020/12/13 07:50:26;;;;;;;;;;;;;;;16.08;71.47;100256.19;5065921;28;1958;-46
2020/12/13 07:52:51;;;;;;;;;;;;;;;16.08;70.53;100269.53;5070608;28;1661;-46
2020/12/13 07:55:17;;;;;;;;;;;;;;;16.08;70.74;100266.84;5068977;28;1419;-46
2020/12/13 07:57:46;;;;;;;;;;;;;;;16.10;70.62;100270.25;5067626;28;2074;-46
2020/12/13 08:00:11;;;;;;;;;;;;;;;16.08;70.36;100258.84;5061324;28;1653;-46
2020/12/13 08:02:37;;;;;;;;;;;;;;;16.13;71.07;100266.47;5060868;28;1691;-45
2020/12/13 08:05:02;;;;;;;;;;;;;;;16.13;70.39;100261.13;5065110;28;2084;-46
2020/12/13 08:07:28;;;;;;;;;;;;;;;16.12;70.05;100270.97;5066165;28;1996;-46
2020/12/13 08:09:57;;;;;;;;;;;;;;;16.13;70.55;100277.13;5066243;28;1908;-45
2020/12/13 08:12:28;;;;;;;;;;;;;;;16.11;70.92;100271.91;5057858;28;1567;-46
2020/12/13 08:14:54;;;;;;;;;;;;;;;16.08;71.29;100266.84;5066533;28;1697;-45
2020/12/13 08:17:20;;;;;;;;;;;;;;;16.13;70.01;100283.31;5065310;28;1744;-45
2020/12/13 08:19:48;;;;;;;;;;;;;;;16.21;71.17;100264.81;5060155;28;1659;-45
2020/12/13 08:22:13;;;;;;;;;;;;;;;16.30;69.97;100274.72;5057034;28;1322;-46
2020/12/13 08:24:38;;;;;;;;;;;;;;;16.52;70.08;100266.72;5064782;28;2515;-46
2020/12/13 08:27:05;;;;;;;;;;;;;;;16.64;69.30;100271.00;5066964;28;1993;-46
2020/12/13 08:29:31;;;;;;;;;;;;;;;16.83;68.87;100275.63;5061116;28;1989;-46
2020/12/13 08:31:57;;;;;;;;;;;;;;;16.95;68.87;100269.25;5064160;28;1800;-46
2020/12/13 08:34:24;;;;;;;;;;;;;;;17.12;67.99;100261.56;5061354;28;1736;-46
2020/12/13 08:36:53;;;;;;;;;;;;;;;17.26;67.96;100266.53;5063386;28;1183;-47
2020/12/13 08:39:24;;;;;;;;;;;;;;;17.43;68.17;100267.72;5070274;28;1775;-46
2020/12/13 08:41:49;;;;;;;;;;;;;;;17.59;67.54;100269.84;5068972;28;1944;-46
2020/12/13 08:44:29;;;;;;;;;;;;;;;17.73;66.90;100272.09;5061611;28;1979;-45
2020/12/13 08:46:55;;;;;;;;;;;;;;;17.87;66.97;100265.53;5058477;28;1886;-46
2020/12/13 08:49:26;;;;;;;;;;;;;;;18.03;66.58;100281.03;5064657;28;1694;-46
2020/12/13 08:51:52;;;;;;;;;;;;;;;18.12;66.16;100271.28;5071028;28;1247;-46
2020/12/13 08:54:17;;;;;;;;;;;;;;;18.26;66.18;100255.66;5073697;28;1620;-46
2020/12/13 08:56:42;;;;;;;;;;;;;;;18.38;66.10;100258.16;5062138;28;1698;-46
2020/12/13 08:59:08;;;;;;;;;;;;;;;18.44;65.71;100244.19;5065828;28;1719;-48
2020/12/13 09:01:36;;;;;;;;;;;;;;;18.52;65.55;100265.72;5066403;28;1713;-46
2020/12/13 09:04:16;;;;;;;;;;;;;;;18.61;65.05;100266.72;5061340;28;1875;-46
2020/12/13 09:06:51;;;;;;;;;;;;;;;18.59;65.04;100245.44;5059319;28;1922;-46
2020/12/13 09:09:16;;;;;;;;;;;;;;;18.70;65.25;100255.09;5058950;28;1596;-46
2020/12/13 09:11:42;;;;;;;;;;;;;;;18.72;64.83;100244.25;5064240;28;1792;-46
2020/12/13 09:14:07;;;;;;;;;;;;;;;18.67;65.31;100248.22;5060694;28;1851;-47
2020/12/13 09:16:33;;;;;;;;;;;;;;;18.64;65.13;100243.19;5069189;28;1501;-46
2020/12/13 09:19:11;;;;;;;;;;;;;;;18.62;65.59;100250.50;5067053;28;1470;-46
2020/12/13 09:21:40;;;;;;;;;;;;;;;18.59;65.92;100250.78;5053893;28;1294;-48
2020/12/13 09:24:06;;;;;;;;;;;;;;;18.52;65.76;100263.06;5059283;28;2314;-46
2020/12/13 09:26:31;;;;;;;;;;;;;;;18.45;65.82;100241.38;5062104;28;1897;-45
2020/12/13 09:28:56;;;;;;;;;;;;;;;18.44;66.21;100252.22;5062630;28;1529;-46
2020/12/13 09:31:21;;;;;;;;;;;;;;;18.36;66.40;100250.25;5055918;28;1616;-46
2020/12/13 09:33:47;;;;;;;;;;;;;;;18.36;66.57;100255.63;5065047;28;1548;-45
2020/12/13 09:36:13;;;;;;;;;;;;;;;18.36;66.19;100260.13;5065556;28;1204;-45
2020/12/13 09:38:38;;;;;;;;;;;;;;;18.52;65.84;100265.72;5069067;28;1624;-45
2020/12/13 09:41:04;;;;;;;;;;;;;;;18.47;65.83;100268.00;5060300;28;1286;-45
2020/12/13 09:43:31;;;;;;;;;;;;;;;18.43;66.35;100266.63;5066032;28;1748;-45
2020/12/13 09:45:57;;;;;;;;;;;;;;;18.39;66.39;100260.69;5065633;28;1898;-45
2020/12/13 09:48:23;;;;;;;;;;;;;;;18.44;66.79;100262.94;5067186;28;2352;-46
2020/12/13 09:50:49;;;;;;;;;;;;;;;18.46;66.36;100255.59;5063679;28;1550;-45
2020/12/13 09:53:14;;;;;;;;;;;;;;;18.51;66.17;100263.22;5065801;28;2038;-47
2020/12/13 09:55:39;;;;;;;;;;;;;;;18.63;65.94;100241.47;5062820;28;2993;-47
2020/12/13 09:58:05;;;;;;;;;;;;;;;18.64;67.03;100237.81;5063721;28;1814;-47
2020/12/13 10:00:30;;;;;;;;;;;;;;;18.73;66.65;100235.25;5047468;28;1707;-46
2020/12/13 10:02:59;;;;;;;;;;;;;;;18.80;66.26;100260.47;5049094;28;1519;-46
2020/12/13 10:05:37;;;;;;;;;;;;;;;18.77;67.05;100242.00;5067426;28;1506;-45
2020/12/13 10:10:47;;;;;;;;;;;;;;;18.71;67.24;100232.72;5065177;28;1749;-45
2020/12/13 10:13:19;;;;;;;;;;;;;;;18.69;67.42;100240.88;5067204;28;1416;-46
2020/12/13 10:15:44;;;;;;;;;;;;;;;18.64;67.85;100232.47;5059143;28;1518;-45
2020/12/13 10:18:09;;;;;;;;;;;;;;;18.64;67.68;100216.41;5044486;28;1422;-45
2020/12/13 10:20:39;;;;;;;;;;;;;;;18.61;68.53;100224.72;5064681;28;1699;-46
2020/12/13 10:23:05;;;;;;;;;;;;;;;18.69;67.58;100229.34;5066007;28;1530;-46
2020/12/13 10:25:30;;;;;;;;;;;;;;;18.73;67.62;100221.84;5064786;28;1981;-46
2020/12/13 10:27:56;;;;;;;;;;;;;;;18.63;67.57;100219.22;5064678;28;1514;-45
2020/12/13 10:30:21;;;;;;;;;;;;;;;18.53;68.01;100224.59;5060888;28;2477;-44
2020/12/13 10:32:46;;;;;;;;;;;;;;;18.45;68.33;100217.28;5064693;28;1499;-45
2020/12/13 10:35:12;;;;;;;;;;;;;;;18.49;67.78;100231.22;5065118;28;1981;-44
2020/12/13 10:37:38;;;;;;;;;;;;;;;18.55;68.10;100238.69;5066323;28;2902;-45
2020/12/13 10:40:03;;;;;;;;;;;;;;;18.56;67.78;100229.66;5065162;28;1629;-45
2020/12/13 10:42:29;;;;;;;;;;;;;;;18.61;67.57;100223.88;5065976;28;1498;-45
2020/12/13 10:44:54;;;;;;;;;;;;;;;18.11;69.11;100246.38;5067998;28;1687;-44
2020/12/13 10:47:21;;;;;;;;;;;;;;;18.57;67.97;100235.88;5070622;28;1945;-44
2020/12/13 10:49:46;;;;;;;;;;;;;;;18.81;67.27;100212.13;5069048;28;1314;-46
2020/12/13 10:52:11;;;;;;;;;;;;;;;19.08;66.75;100210.44;5070308;28;1492;-46
2020/12/13 10:54:36;;;;;;;;;;;;;;;19.08;67.00;100213.97;5070380;28;1675;-47
2020/12/13 10:57:03;;;;;;;;;;;;;;;19.08;68.30;100222.00;5071495;28;1697;-46
2020/12/13 10:59:28;;;;;;;;;;;;;;;19.32;67.13;100228.66;5068413;28;1352;-45
2020/12/13 11:01:54;;;;;;;;;;;;;;;19.42;66.48;100231.25;5054069;28;1514;-47
2020/12/13 11:04:19;;;;;;;;;;;;;;;19.43;66.50;100223.03;5068632;28;1553;-45
2020/12/13 11:06:48;;;;;;;;;;;;;;;19.34;66.84;100231.16;5072138;28;1971;-45
2020/12/13 11:09:13;;;;;;;;;;;;;;;19.36;67.21;100242.56;5071046;28;1504;-46
2020/12/13 11:11:40;;;;;;;;;;;;;;;19.34;67.04;100236.50;5068296;28;1640;-45
2020/12/13 11:14:07;;;;;;;;;;;;;;;19.39;67.12;100240.44;5069139;28;1873;-45
2020/12/13 11:16:32;;;;;;;;;;;;;;;19.47;67.07;100237.84;5067035;28;1813;-46
2020/12/13 11:18:57;;;;;;;;;;;;;;;19.59;66.72;100227.72;5070797;28;1808;-45
2020/12/13 11:21:23;;;;;;;;;;;;;;;19.51;66.80;100241.06;5068882;28;1705;-45
2020/12/13 11:23:49;;;;;;;;;;;;;;;19.44;66.98;100243.50;5070976;28;1556;-45
2020/12/13 11:26:17;;;;;;;;;;;;;;;19.45;66.90;100245.19;5069828;28;1905;-46
2020/12/13 11:28:42;;;;;;;;;;;;;;;19.59;66.85;100248.34;5068517;28;1687;-46
2020/12/13 11:31:10;;;;;;;;;;;;;;;19.42;67.18;100242.81;5046056;28;1463;-46
2020/12/13 11:33:35;;;;;;;;;;;;;;;19.43;67.29;100247.19;5055665;28;1652;-46
2020/12/13 11:36:00;;;;;;;;;;;;;;;19.51;66.95;100240.22;5070630;28;1400;-46
2020/12/13 11:38:27;;;;;;;;;;;;;;;19.43;67.47;100238.31;5068907;28;1544;-46
2020/12/13 11:40:52;;;;;;;;;;;;;;;19.62;67.04;100254.25;5068367;28;1458;-46
2020/12/13 11:43:17;;;;;;;;;;;;;;;19.51;66.68;100256.31;5071245;28;1486;-46
2020/12/13 11:45:43;;;;;;;;;;;;;;;19.19;65.42;100263.00;5061989;28;1886;-46
2020/12/13 11:48:08;;;;;;;;;;;;;;;19.34;66.00;100271.38;5068674;28;1663;-41
2020/12/13 11:50:40;;;;;;;;;;;;;;;19.20;67.10;100275.38;5068550;28;1489;-41
2020/12/13 11:53:06;;;;;;;;;;;;;;;19.02;67.71;100261.94;5071911;28;1122;-41
2020/12/13 11:55:31;;;;;;;;;;;;;;;18.94;67.95;100265.38;5070687;28;1318;-41
2020/12/13 11:57:56;;;;;;;;;;;;;;;18.84;68.34;100281.47;5068971;28;1551;-42
2020/12/13 12:00:21;;;;;;;;;;;;;;;18.73;68.90;100272.75;5070228;28;1620;-41
2020/12/13 12:02:46;;;;;;;;;;;;;;;18.71;68.20;100267.53;5070009;28;1535;-42
2020/12/13 12:05:12;;;;;;;;;;;;;;;18.66;68.91;100267.09;5068880;28;1681;-41
2020/12/13 12:07:37;;;;;;;;;;;;;;;18.80;68.37;100265.81;5071117;28;1918;-39
2020/12/13 12:10:03;;;;;;;;;;;;;;;18.84;68.59;100277.94;5071198;28;1574;-46
2020/12/13 12:12:28;;;;;;;;;;;;;;;18.74;68.75;100264.56;5069779;28;1793;-46
2020/12/13 12:14:53;;;;;;;;;;;;;;;18.62;68.67;100274.63;5068459;28;2002;-46
2020/12/13 12:17:18;;;;;;;;;;;;;;;18.60;68.46;100276.59;5069356;28;1687;-48
2020/12/13 12:19:44;;;;;;;;;;;;;;;18.48;69.23;100275.03;5069662;28;1686;-46
2020/12/13 12:22:09;;;;;;;;;;;;;;;18.36;69.35;100276.19;5068540;28;1529;-46
2020/12/13 12:24:37;;;;;;;;;;;;;;;18.32;68.55;100277.47;5069721;28;2009;-44
2020/12/13 12:27:05;;;;;;;;;;;;;;;18.28;67.92;100280.44;5066470;28;1956;-45
2020/12/13 12:29:30;;;;;;;;;;;;;;;18.24;68.68;100286.22;5069119;28;1356;-45
2020/12/13 12:31:55;;;;;;;;;;;;;;;18.23;69.51;100285.38;5048703;28;2235;-46
2020/12/13 12:34:20;;;;;;;;;;;;;;;18.17;69.84;100293.13;5066653;28;1408;-46
2020/12/13 12:36:46;;;;;;;;;;;;;;;18.22;70.02;100290.88;5067088;28;1244;-46
2020/12/13 12:39:11;;;;;;;;;;;;;;;18.31;70.02;100299.88;5048028;28;1769;-46
2020/12/13 12:41:36;;;;;;;;;;;;;;;18.48;69.60;100296.47;5065760;28;1448;-46
2020/12/13 12:44:05;;;;;;;;;;;;;;;18.65;69.52;100311.81;5065218;28;1589;-48
2020/12/13 12:46:30;;;;;;;;;;;;;;;18.72;69.68;100306.72;5067150;28;1961;-46
2020/12/13 12:48:55;;;;;;;;;;;;;;;18.81;69.23;100299.69;5068267;28;1455;-46
2020/12/13 12:51:22;;;;;;;;;;;;;;;19.10;68.50;100306.75;5070449;28;1460;-47
2020/12/13 12:53:47;;;;;;;;;;;;;;;19.13;68.30;100307.31;5068580;28;1604;-47
2020/12/13 12:56:13;;;;;;;;;;;;;;;19.05;68.31;100301.84;5068441;28;1471;-46
2020/12/13 12:59:23;;;;;;;;;;;;;;;19.02;68.40;100308.34;5069117;28;1806;-46
2020/12/13 13:01:34;;;;;;;;;;;;;;;19.04;68.27;100313.56;5058621;28;1423;-46